Port O' Connor, Texas
Current Conditions -  °F | °C
As of 7:53 PM on Wednesday 22 Oct 2014 (Local Time) from KRKP Reporting Station
Clear Clear  
Wind Chill: 76°   Ceiling: Unl
Heat Index: 76°   Visibility: 10mi
Dew Point: 65°   Wind: 12mph
Humidity: 69%   Direction: 90°E
Pressure: 30.04"   Gusts: NA
Location:  28.2231°N, 96.6507°W
Report Text: KRKP 230053Z AUTO 09010KT 10SM CLR 24/18 A3004 RMK AO2 SLP173 T02440183 $
Loading
Personal Weather Stations






























Interactive Weather Map
Tropical Storm Tracking
New forecast layout! Learn more

10-Day Weather Forecast

Advertisements
Track Severe Weather on mobile